This is the latest recevied weather packets stored in our database for station/object AA4XD. If no packets are shown the sender has not sent any weather packets the latest 10 day(s).
| Time | Temp. | Humidity | Pressure | Rain* | Wind** | Luminosity | Snow |
|---|---|---|---|---|---|---|---|
| 1777326567 | 27.78° C | 54% | 1016.2 hPa | 0 mm | - | 124 W/m² | - |
| 1777326265 | 27.78° C | 54% | 1016.2 hPa | 0 mm | - | 258 W/m² | - |
| 1777325962 | 27.22° C | 55% | 1016.3 hPa | 0 mm | - | 364 W/m² | - |
| 1777325661 | 26.67° C | 57% | 1016.3 hPa | 0 mm | - | 423 W/m² | - |
| 1777325358 | 27.78° C | 54% | 1016.1 hPa | 0 mm | - | 82 W/m² | - |
| 1777325056 | 28.89° C | 51% | 1016.3 hPa | 0 mm | - | 489 W/m² | - |
| 1777324752 | 28.33° C | 50% | 1016.3 hPa | 0 mm | - | 584 W/m² | - |
| 1777324450 | 28.89° C | 52% | 1016.1 hPa | 0 mm | - | 485 W/m² | - |
| 1777324147 | 28.33° C | 52% | 1016.3 hPa | 0 mm | - | 518 W/m² | - |
| 1777323846 | 29.44° C | 49% | 1016.4 hPa | 0 mm | - | 374 W/m² | - |
| 1777323542 | 28.89° C | 53% | 1016.2 hPa | 0 mm | - | 639 W/m² | - |
| 1777323239 | 27.22° C | 55% | 1016.3 hPa | 0 mm | - | 637 W/m² | - |
| 1777322936 | 27.78° C | 54% | 1016.3 hPa | 0 mm | - | 137 W/m² | - |
| 1777322635 | 27.78° C | 53% | 1016.5 hPa | 0 mm | - | 328 W/m² | - |
| 1777322332 | 28.33° C | 52% | 1016.5 hPa | 0 mm | - | 218 W/m² | - |
| 1777322029 | 28.89° C | 53% | 1016.5 hPa | 0 mm | - | 713 W/m² | - |
| 1777321725 | 28.33° C | 55% | 1016.4 hPa | 0 mm | - | 784 W/m² | - |
| 1777321422 | 27.78° C | 58% | 1016.4 hPa | 0 mm | - | 621 W/m² | - |
| 1777321119 | 28.33° C | 55% | 1016.3 hPa | 0 mm | - | 238 W/m² | - |
| 1777320817 | 29.44° C | 50% | 1016.4 hPa | 0 mm | - | 909 W/m² | - |
| 1777320513 | 28.89° C | 52% | 1016.5 hPa | 0 mm | - | 789 W/m² | - |
| 1777320211 | 27.22° C | 57% | 1016.4 hPa | 0 mm | - | 844 W/m² | - |
| 1777319908 | 27.22° C | 56% | 1016.6 hPa | 0 mm | - | 240 W/m² | - |
| 1777319605 | 27.78° C | 57% | 1016.5 hPa | 0 mm | - | 904 W/m² | - |
| 1777319302 | 27.78° C | 57% | 1016.6 hPa | 0 mm | - | 525 W/m² | - |
* Rain latest hour (hover to see other rain measurements)
** Current wind speed in m/s (hover to see current wind gust speed)